createdAt,value
2019-04-07T00:08:06.788Z,100537.39
2019-04-07T00:21:23.228Z,100531.70
2019-04-07T00:23:57.906Z,100537.07
2019-04-07T00:38:26.725Z,100529.66
2019-04-07T00:41:00.314Z,100527.67
2019-04-07T00:43:34.187Z,100533.14
2019-04-07T00:46:08.843Z,100524.80
2019-04-07T00:48:42.463Z,100521.98
2019-04-07T00:51:31.153Z,100526.81
2019-04-07T00:54:04.348Z,100524.16
2019-04-07T00:56:50.181Z,100530.05
2019-04-07T00:59:24.245Z,100528.20
2019-04-07T01:01:58.038Z,100524.09
2019-04-07T01:04:32.160Z,100524.92
2019-04-07T01:18:09.184Z,100516.72
2019-04-07T01:20:43.022Z,100522.98
2019-04-07T01:23:17.035Z,100514.59
2019-04-07T01:25:51.213Z,100526.02
2019-04-07T01:39:49.222Z,100521.63
2019-04-07T01:42:41.024Z,100518.80
2019-04-07T01:45:36.107Z,100520.86
2019-04-07T01:48:16.097Z,100530.70
2019-04-07T02:01:52.754Z,100525.55
2019-04-07T02:04:52.138Z,100533.44
2019-04-07T02:07:53.935Z,100524.94
2019-04-07T02:10:55.119Z,100521.69
2019-04-07T02:13:42.916Z,100527.20
2019-04-07T02:16:27.002Z,100530.02
2019-04-07T02:19:12.850Z,100529.85
2019-04-07T02:22:28.188Z,100531.94
2019-04-07T02:25:11.955Z,100531.77
2019-04-07T02:27:58.132Z,100531.05
2019-04-07T02:31:28.305Z,100527.17
2019-04-07T02:34:13.642Z,100535.92
2019-04-07T02:37:36.690Z,100525.53
2019-04-07T02:40:26.754Z,100527.89
2019-04-07T02:43:35.249Z,100533.55
2019-04-07T02:46:27.650Z,100533.24
2019-04-07T02:49:56.461Z,100534.72
2019-04-07T02:52:49.198Z,100535.59
2019-04-07T02:55:53.639Z,100536.45
2019-04-07T02:58:44.296Z,100539.36
2019-04-07T03:02:04.803Z,100547.92
2019-04-07T03:04:58.768Z,100546.91
2019-04-07T03:18:57.981Z,100540.14
2019-04-07T03:21:42.584Z,100543.40
2019-04-07T03:24:28.782Z,100543.26
2019-04-07T03:27:31.332Z,100549.33
2019-04-07T03:30:32.762Z,100547.02
2019-04-07T03:33:40.262Z,100543.40
2019-04-07T03:37:19.176Z,100551.92
2019-04-07T03:40:14.057Z,100547.79
2019-04-07T03:43:44.112Z,100555.23
2019-04-07T03:47:10.586Z,100561.52
2019-04-07T03:50:03.391Z,100560.09
2019-04-07T03:53:16.340Z,100557.28
2019-04-07T03:56:11.778Z,100551.17
2019-04-07T03:59:10.988Z,100559.37
2019-04-07T04:02:15.841Z,100559.06
2019-04-07T04:04:59.615Z,100557.02
2019-04-07T04:07:47.950Z,100556.22
2019-04-07T04:10:40.920Z,100555.01
2019-04-07T04:13:28.124Z,100547.58
2019-04-07T04:16:15.593Z,100554.70
2019-04-07T04:18:50.427Z,100553.91
2019-04-07T04:21:24.406Z,100551.98
2019-04-07T04:23:59.039Z,100552.39
2019-04-07T04:26:33.148Z,100559.60
2019-04-07T04:29:08.295Z,100560.23
2019-04-07T04:31:47.510Z,100563.96
2019-04-07T04:34:46.632Z,100567.18
2019-04-07T04:37:34.567Z,100564.98
2019-04-07T04:39:57.548Z,100571.84
2019-04-07T04:42:50.911Z,100579.87
2019-04-07T04:45:26.329Z,100584.41
2019-04-07T04:48:13.300Z,100581.34
2019-04-07T04:51:06.657Z,100590.44
2019-04-07T04:53:42.291Z,100590.75
2019-04-07T04:56:16.792Z,100595.62
2019-04-07T04:58:50.837Z,100590.31
2019-04-07T05:01:25.292Z,100585.32
2019-04-07T05:04:10.025Z,100588.84
2019-04-07T05:06:44.598Z,100601.66
2019-04-07T05:09:18.434Z,100609.99
2019-04-07T05:11:52.834Z,100604.39
2019-04-07T05:14:38.052Z,100603.98
2019-04-07T05:17:11.746Z,100618.51
2019-04-07T05:19:49.117Z,100613.69
2019-04-07T05:22:57.603Z,100607.25
2019-04-07T05:25:31.691Z,100613.52
2019-04-07T05:28:06.260Z,100612.59
2019-04-07T05:30:40.622Z,100608.25
2019-04-07T05:33:15.409Z,100624.53
2019-04-07T05:35:49.678Z,100626.89
2019-04-07T05:38:24.049Z,100624.81
2019-04-07T05:40:58.735Z,100625.65
2019-04-07T05:43:50.289Z,100626.86
2019-04-07T05:46:25.049Z,100630.88
2019-04-07T05:49:00.414Z,100638.36
2019-04-07T05:51:37.057Z,100642.69
2019-04-07T06:15:46.638Z,100655.80
2019-04-07T06:18:21.069Z,100659.45
2019-04-07T06:20:55.466Z,100659.69
2019-04-07T06:23:29.863Z,100652.53
2019-04-07T06:26:11.201Z,100658.95
2019-04-07T06:28:43.872Z,100653.63
2019-04-07T06:44:59.474Z,100661.50
2019-04-07T06:47:56.266Z,100656.41
2019-04-07T06:51:01.948Z,100649.47
2019-04-07T06:54:09.220Z,100657.86
2019-04-07T06:57:37.428Z,100664.58
2019-04-07T07:00:29.011Z,100655.84
2019-04-07T07:29:33.825Z,100672.79
2019-04-07T07:32:08.234Z,100662.42
2019-04-07T07:34:43.395Z,100669.95
2019-04-07T07:37:18.393Z,100670.76
2019-04-07T07:39:51.989Z,100663.97
2019-04-07T07:42:27.898Z,100671.84
2019-04-07T07:45:13.987Z,100677.29
2019-04-07T07:47:51.336Z,100671.98
2019-04-07T07:50:23.333Z,100673.83
2019-04-07T07:52:57.117Z,100671.34
2019-04-07T07:55:35.988Z,100672.01
2019-04-07T07:58:07.276Z,100675.41
2019-04-07T08:00:43.352Z,100679.72
2019-04-07T08:03:28.974Z,100671.77
2019-04-07T08:06:06.931Z,100673.41
2019-04-07T08:08:38.208Z,100674.35
2019-04-07T08:11:15.048Z,100676.09
2019-04-07T08:13:47.986Z,100670.31
2019-04-07T08:16:20.934Z,100667.92
2019-04-07T08:19:13.579Z,100672.14
2019-04-07T08:21:50.487Z,100673.41
2019-04-07T08:24:51.997Z,100667.11
2019-04-07T08:27:31.026Z,100669.81
2019-04-07T08:30:16.217Z,100671.84
2019-04-07T08:32:50.136Z,100668.88
2019-04-07T08:35:24.337Z,100670.86
2019-04-07T08:37:58.507Z,100671.23
2019-04-07T08:40:49.817Z,100672.13
2019-04-07T08:43:24.783Z,100666.47
2019-04-07T08:46:02.247Z,100669.48
2019-04-07T08:48:49.734Z,100673.39
2019-04-07T08:51:33.697Z,100671.03
2019-04-07T08:54:19.034Z,100669.95
2019-04-07T08:57:05.680Z,100667.25
2019-04-07T08:59:42.438Z,100668.34
2019-04-07T09:02:15.298Z,100669.44
2019-04-07T09:05:01.302Z,100668.11
2019-04-07T09:07:35.415Z,100670.27
2019-04-07T09:10:36.992Z,100672.18
2019-04-07T09:13:10.533Z,100669.95
2019-04-07T09:16:26.925Z,100664.21
2019-04-07T09:19:22.872Z,100668.80
2019-04-07T09:22:14.529Z,100668.80
2019-04-07T09:25:26.136Z,100666.06
2019-04-07T09:28:23.969Z,100657.32
2019-04-07T09:31:33.275Z,100665.70
2019-04-07T09:34:20.092Z,100666.22
2019-04-07T09:37:18.576Z,100672.17
2019-04-07T09:40:17.179Z,100668.67
2019-04-07T09:43:30.584Z,100670.48
2019-04-07T09:46:32.218Z,100664.55
2019-04-07T09:49:29.986Z,100664.28
2019-04-07T09:52:25.728Z,100664.28
2019-04-07T09:55:26.285Z,100661.55
2019-04-07T09:58:26.290Z,100656.25
2019-04-07T10:01:22.242Z,100656.25
2019-04-07T10:04:14.957Z,100664.46
2019-04-07T10:07:02.565Z,100667.70
2019-04-07T10:10:14.512Z,100664.25
2019-04-07T10:13:16.546Z,100661.60
2019-04-07T10:16:15.055Z,100667.48
2019-04-07T10:19:11.155Z,100661.63
2019-04-07T10:22:03.494Z,100665.08
2019-04-07T10:25:05.508Z,100661.81
2019-04-07T10:28:07.300Z,100660.05
2019-04-07T10:30:56.761Z,100658.12
2019-04-07T10:34:08.230Z,100665.55
2019-04-07T10:37:19.425Z,100665.02
2019-04-07T10:40:30.056Z,100665.48
2019-04-07T10:43:26.152Z,100669.31
2019-04-07T10:46:30.931Z,100662.23
2019-04-07T10:49:24.092Z,100660.05
2019-04-07T10:52:27.171Z,100663.77
2019-04-07T10:55:38.113Z,100665.92
2019-04-07T10:58:38.045Z,100661.07
2019-04-07T11:01:21.075Z,100660.59
2019-04-07T11:04:12.811Z,100660.37
2019-04-07T11:07:31.697Z,100651.68
2019-04-07T11:10:35.523Z,100652.28
2019-04-07T11:13:20.966Z,100651.98
2019-04-07T11:16:12.756Z,100649.31
2019-04-07T11:19:19.033Z,100650.42
2019-04-07T11:22:40.084Z,100644.86
2019-04-07T11:25:37.117Z,100640.75
2019-04-07T11:28:30.628Z,100643.30
2019-04-07T11:31:23.252Z,100649.25
2019-04-07T11:34:19.410Z,100650.26
2019-04-07T11:37:24.521Z,100639.13
2019-04-07T11:40:27.023Z,100648.13
2019-04-07T11:43:21.297Z,100640.75
2019-04-07T11:46:03.493Z,100644.63
2019-04-07T11:49:19.479Z,100637.12
2019-04-07T11:52:27.864Z,100635.50
2019-04-07T11:55:34.655Z,100641.64
2019-04-07T11:58:31.461Z,100638.28
2019-04-07T12:01:39.449Z,100638.10
2019-04-07T12:04:27.701Z,100641.58
2019-04-07T12:07:21.905Z,100636.16
2019-04-07T12:10:20.350Z,100630.60
2019-04-07T12:13:22.494Z,100634.33
2019-04-07T12:16:22.037Z,100635.45
2019-04-07T12:19:23.903Z,100634.02
2019-04-07T12:22:18.141Z,100637.45
2019-04-07T12:25:10.686Z,100626.07
2019-04-07T12:28:03.669Z,100630.69
2019-04-07T12:31:12.006Z,100631.60
2019-04-07T12:34:33.125Z,100630.72
2019-04-07T12:37:47.738Z,100625.34
2019-04-07T12:41:19.742Z,100630.04
2019-04-07T12:44:30.424Z,100627.37
2019-04-07T12:47:23.719Z,100620.91
2019-04-07T12:50:15.510Z,100623.31
2019-04-07T12:53:05.993Z,100620.66
2019-04-07T12:56:02.506Z,100613.53
2019-04-07T12:59:03.346Z,100625.84
2019-04-07T13:02:29.944Z,100623.23
2019-04-07T13:05:13.275Z,100622.53
2019-04-07T13:08:06.048Z,100620.84
2019-04-07T13:10:59.100Z,100619.06
2019-04-07T13:13:50.594Z,100625.45
2019-04-07T13:16:40.411Z,100618.56
2019-04-07T13:19:58.148Z,100615.41
2019-04-07T13:22:53.125Z,100617.88
2019-04-07T13:25:32.442Z,100620.45
2019-04-07T13:28:59.171Z,100618.02
2019-04-07T13:31:51.777Z,100617.16
2019-04-07T13:34:59.289Z,100616.81
2019-04-07T13:37:42.545Z,100621.03
2019-04-07T13:40:44.149Z,100608.88
2019-04-07T13:44:07.679Z,100606.60
2019-04-07T13:47:08.578Z,100613.39
2019-04-07T13:50:19.245Z,100612.09
2019-04-07T13:53:14.645Z,100615.80
2019-04-07T13:56:19.478Z,100613.75
2019-04-07T13:59:18.012Z,100608.78
2019-04-07T14:01:58.008Z,100617.00
2019-04-07T14:04:45.657Z,100563.13
2019-04-07T14:07:55.417Z,100604.28
2019-04-07T14:10:37.129Z,100604.73
2019-04-07T14:13:31.140Z,100599.20
2019-04-07T14:16:17.935Z,100607.54
2019-04-07T14:19:37.053Z,100599.33
2019-04-07T14:22:58.392Z,100601.34
2019-04-07T14:25:52.956Z,100600.22
2019-04-07T14:28:43.970Z,100597.11
2019-04-07T14:31:46.199Z,100587.20
2019-04-07T14:34:39.108Z,100595.29
2019-04-07T14:37:30.791Z,100598.12
2019-04-07T14:40:53.176Z,100591.16
2019-04-07T14:44:00.420Z,100595.42
2019-04-07T14:46:58.483Z,100592.36
2019-04-07T14:49:51.907Z,100590.13
2019-04-07T14:52:47.106Z,100600.13
2019-04-07T14:55:38.178Z,100602.56
2019-04-07T14:58:26.988Z,100597.83
2019-04-07T15:01:15.722Z,100596.27
2019-04-07T15:03:48.938Z,100591.92
2019-04-07T15:06:40.511Z,100591.50
2019-04-07T15:09:19.854Z,100592.81
2019-04-07T15:12:18.558Z,100599.83
2019-04-07T15:14:49.139Z,100598.53
2019-04-07T15:17:36.470Z,100596.34
2019-04-07T15:20:13.648Z,100590.13
2019-04-07T15:22:58.378Z,100587.70
2019-04-07T15:25:49.470Z,100593.40
2019-04-07T15:28:23.598Z,100592.50
2019-04-07T15:30:56.892Z,100592.53
2019-04-07T15:33:42.400Z,100597.65
2019-04-07T15:36:28.065Z,100598.89
2019-04-07T15:39:02.004Z,100604.19
2019-04-07T15:41:45.706Z,100592.16
2019-04-07T15:44:19.705Z,100596.84
2019-04-07T15:46:53.469Z,100597.20
2019-04-07T15:49:37.708Z,100596.76
2019-04-07T15:52:11.325Z,100598.03
2019-04-07T15:54:57.347Z,100595.26
2019-04-07T15:57:42.802Z,100593.34
2019-04-07T16:00:28.317Z,100605.61
2019-04-07T16:03:15.756Z,100599.75
2019-04-07T16:05:49.094Z,100602.95
2019-04-07T16:08:26.024Z,100603.06
2019-04-07T16:10:59.527Z,100611.84
2019-04-07T16:13:33.759Z,100606.22
2019-04-07T16:16:07.984Z,100603.53
2019-04-07T16:18:43.313Z,100607.01
2019-04-07T16:21:29.789Z,100607.01
2019-04-07T16:24:04.075Z,100606.80
2019-04-07T16:26:37.643Z,100604.73
2019-04-07T16:29:11.536Z,100580.48
2019-04-07T16:31:44.248Z,100604.05
2019-04-07T16:34:21.018Z,100602.42
2019-04-07T16:36:57.189Z,100612.59
2019-04-07T16:39:34.112Z,100610.42
2019-04-07T16:42:05.280Z,100611.55
2019-04-07T16:44:42.607Z,100608.23
2019-04-07T16:47:20.841Z,100609.30
2019-04-07T16:49:50.253Z,100607.59
2019-04-07T16:52:24.412Z,100604.25
2019-04-07T16:54:58.548Z,100603.93
2019-04-07T16:57:45.044Z,100583.36
2019-04-07T17:00:19.140Z,100609.64
2019-04-07T17:03:05.576Z,100609.59
2019-04-07T17:05:39.916Z,100608.63
2019-04-07T17:08:28.628Z,100616.06
2019-04-07T17:11:05.220Z,100615.41
2019-04-07T17:13:41.252Z,100613.42
2019-04-07T17:16:25.053Z,100615.39
2019-04-07T17:18:58.825Z,100614.14
2019-04-07T17:21:33.077Z,100612.12
2019-04-07T17:24:18.484Z,100614.38
2019-04-07T17:27:03.228Z,100616.27
2019-04-07T17:29:37.045Z,100615.47
2019-04-07T17:32:10.929Z,100621.66
2019-04-07T17:34:56.327Z,100623.18
2019-04-07T17:37:40.620Z,100624.45
2019-04-07T17:40:15.797Z,100627.50
2019-04-07T17:43:31.626Z,100629.16
2019-04-07T17:46:46.937Z,100632.23
2019-04-07T17:49:35.692Z,100636.41
2019-04-07T17:52:27.982Z,100638.38
2019-04-07T17:55:34.965Z,100635.76
2019-04-07T17:58:31.017Z,100639.03
2019-04-07T18:01:24.723Z,100649.11
2019-04-07T18:04:30.828Z,100650.48
2019-04-07T18:07:23.340Z,100659.42
2019-04-07T18:10:26.308Z,100658.34
2019-04-07T18:13:22.674Z,100661.02
2019-04-07T18:16:12.290Z,100669.67
2019-04-07T18:19:04.989Z,100672.92
2019-04-07T18:22:29.827Z,100681.00
2019-04-07T18:25:23.967Z,100683.41
2019-04-07T18:28:33.689Z,100686.30
2019-04-07T18:31:13.297Z,100685.33
2019-04-07T18:34:11.243Z,100686.89
2019-04-07T18:37:06.979Z,100689.53
2019-04-07T18:40:33.581Z,100666.14
2019-04-07T18:46:55.099Z,100705.06
2019-04-07T18:49:58.256Z,100713.40
2019-04-07T18:52:53.250Z,100714.44
2019-04-07T18:55:51.023Z,100719.27
2019-04-07T18:58:51.673Z,100730.48
2019-04-07T19:01:42.705Z,100729.63
2019-04-07T19:04:35.552Z,100735.06
2019-04-07T19:07:17.296Z,100741.24
2019-04-07T19:10:24.213Z,100738.48
2019-04-07T19:13:23.514Z,100740.73
2019-04-07T19:16:18.707Z,100741.40
2019-04-07T19:19:33.389Z,100751.58
2019-04-07T19:22:32.494Z,100761.23
2019-04-07T19:25:15.759Z,100756.81
2019-04-07T19:39:24.980Z,100768.55
2019-04-07T19:42:27.392Z,100773.84
2019-04-07T19:45:25.421Z,100767.02
2019-04-07T19:48:56.287Z,100771.44
2019-04-07T19:52:09.762Z,100762.58
2019-04-07T19:55:08.823Z,100766.53
2019-04-07T19:58:02.728Z,100769.51
2019-04-07T20:01:32.519Z,100771.27
2019-04-07T20:15:30.662Z,100778.39
2019-04-07T20:18:46.044Z,100777.27
2019-04-07T20:21:39.221Z,100782.39
2019-04-07T20:24:19.663Z,100779.70
2019-04-07T20:27:15.368Z,100783.18
2019-04-07T20:30:08.375Z,100776.63
2019-04-07T20:33:25.085Z,100783.66
2019-04-07T20:36:23.080Z,100794.05
2019-04-07T20:39:49.295Z,100793.88
2019-04-07T20:42:29.001Z,100789.22
2019-04-07T20:45:22.813Z,100789.32
2019-04-07T20:48:19.619Z,100801.20
2019-04-07T20:51:12.900Z,100800.05
2019-04-07T20:54:05.572Z,100800.58
2019-04-07T20:57:09.268Z,100799.64
2019-04-07T21:00:08.545Z,100805.71
2019-04-07T21:03:15.343Z,100802.97
2019-04-07T21:05:53.457Z,100803.10
2019-04-07T21:08:48.531Z,100811.02
2019-04-07T21:11:36.394Z,100806.76
2019-04-07T21:14:22.849Z,100806.72
2019-04-07T21:17:13.810Z,100804.06
2019-04-07T21:20:07.366Z,100806.70
2019-04-07T21:23:02.858Z,100799.62
2019-04-07T21:26:08.304Z,100804.21
2019-04-07T21:28:48.379Z,100801.73
2019-04-07T21:31:50.709Z,100805.50
2019-04-07T21:34:38.503Z,100808.52
2019-04-07T21:38:28.685Z,100811.75
2019-04-07T21:41:22.740Z,100812.49
2019-04-07T21:55:34.222Z,100809.13
2019-04-07T22:33:32.351Z,100827.58
2019-04-07T22:36:23.865Z,100823.25
2019-04-07T22:39:02.387Z,100826.25
2019-04-07T22:41:57.487Z,100825.79
2019-04-07T22:44:37.904Z,100825.02
2019-04-07T22:47:13.283Z,100823.53
2019-04-07T22:49:48.813Z,100823.19
2019-04-07T22:52:23.149Z,100821.72
2019-04-07T22:55:16.500Z,100820.25
2019-04-07T22:57:54.330Z,100818.00
2019-04-07T23:00:35.928Z,100819.03
2019-04-07T23:03:19.781Z,100816.87
2019-04-07T23:06:16.827Z,100824.45
2019-04-07T23:09:05.741Z,100818.84
2019-04-07T23:11:44.090Z,100821.28
2019-04-07T23:14:29.404Z,100815.11
2019-04-07T23:17:08.421Z,100818.27
2019-04-07T23:20:15.126Z,100819.25
2019-04-07T23:22:56.188Z,100819.39
2019-04-07T23:25:42.019Z,100812.32
2019-04-07T23:28:25.622Z,100813.99
2019-04-07T23:31:09.638Z,100821.99
2019-04-07T23:33:46.042Z,100788.56
2019-04-07T23:36:34.421Z,100816.05
2019-04-07T23:39:15.180Z,100816.37
2019-04-07T23:41:55.615Z,100818.79
2019-04-07T23:44:40.774Z,100817.36
2019-04-07T23:47:27.726Z,100815.56
2019-04-07T23:50:07.574Z,100820.30
2019-04-07T23:52:52.112Z,100822.49
2019-04-07T23:56:15.612Z,100818.73
2019-04-07T23:59:04.709Z,100742.39
